createdAt,value
2023-02-19T00:01:42.149Z,79.64
2023-02-19T00:06:52.372Z,79.64
2023-02-19T00:12:02.259Z,79.64
2023-02-19T00:17:11.901Z,79.71
2023-02-19T00:22:21.355Z,80.01
2023-02-19T00:27:31.081Z,80.11
2023-02-19T00:32:40.703Z,80.17
2023-02-19T00:37:50.402Z,80.36
2023-02-19T00:43:01.193Z,80.57
2023-02-19T00:48:11.112Z,80.63
2023-02-19T00:53:21.252Z,80.68
2023-02-19T00:58:31.176Z,80.75
2023-02-19T01:03:42.451Z,80.87
2023-02-19T01:08:52.625Z,81.00
2023-02-19T01:14:05.230Z,81.38
2023-02-19T01:19:14.929Z,81.36
2023-02-19T01:24:24.951Z,81.40
2023-02-19T01:29:34.875Z,81.50
2023-02-19T01:34:44.936Z,81.60
2023-02-19T01:39:54.985Z,81.65
2023-02-19T01:45:29.755Z,81.46
2023-02-19T01:50:47.402Z,81.47
2023-02-19T01:56:02.131Z,81.44
2023-02-19T02:01:13.066Z,81.62
2023-02-19T02:06:29.551Z,81.63
2023-02-19T02:11:40.203Z,81.47
2023-02-19T02:17:01.714Z,81.32
2023-02-19T02:22:21.106Z,81.29
2023-02-19T02:28:15.717Z,81.19
2023-02-19T02:33:38.180Z,80.95
2023-02-19T02:38:53.274Z,80.76
2023-02-19T02:44:03.133Z,80.60
2023-02-19T02:49:23.341Z,80.55
2023-02-19T02:54:53.893Z,80.43
2023-02-19T03:00:03.984Z,80.39
2023-02-19T03:05:36.863Z,80.30
2023-02-19T03:10:52.905Z,80.23
2023-02-19T03:16:31.563Z,80.28
2023-02-19T03:21:45.182Z,80.26
2023-02-19T03:26:57.239Z,80.21
2023-02-19T03:32:13.171Z,80.14
2023-02-19T03:37:30.925Z,80.14
2023-02-19T03:42:56.189Z,80.22
2023-02-19T03:48:24.448Z,80.24
2023-02-19T03:53:45.076Z,80.08
2023-02-19T03:59:02.071Z,80.01
2023-02-19T04:04:18.401Z,80.06
2023-02-19T04:09:32.792Z,80.00
2023-02-19T04:14:48.971Z,80.06
2023-02-19T04:20:02.625Z,80.14
2023-02-19T04:25:13.078Z,80.21
2023-02-19T04:30:23.048Z,80.18
2023-02-19T04:35:32.823Z,80.14
2023-02-19T04:40:42.572Z,80.17
2023-02-19T04:45:52.122Z,80.13
2023-02-19T04:51:06.152Z,80.11
2023-02-19T04:56:18.647Z,80.16
2023-02-19T05:01:28.719Z,80.16
2023-02-19T05:06:38.436Z,80.21
2023-02-19T05:11:48.129Z,80.25
2023-02-19T05:16:57.669Z,80.31
2023-02-19T05:22:07.368Z,80.40
2023-02-19T05:27:16.892Z,80.36
2023-02-19T05:32:26.780Z,80.44
2023-02-19T05:37:36.602Z,80.35
2023-02-19T05:42:46.265Z,80.24
2023-02-19T05:47:56.220Z,80.33
2023-02-19T05:53:07.504Z,80.40
2023-02-19T05:58:17.367Z,80.34
2023-02-19T06:03:27.455Z,80.29
2023-02-19T06:08:38.735Z,80.36
2023-02-19T06:13:49.674Z,80.34
2023-02-19T06:18:59.487Z,80.39
2023-02-19T06:24:13.015Z,80.39
2023-02-19T06:29:23.126Z,80.43
2023-02-19T06:34:32.866Z,80.43
2023-02-19T06:39:43.977Z,80.37
2023-02-19T06:44:54.084Z,80.33
2023-02-19T06:50:03.832Z,80.30
2023-02-19T06:55:13.970Z,80.29
2023-02-19T07:00:24.710Z,80.17
2023-02-19T07:05:34.626Z,80.11
2023-02-19T07:10:44.661Z,80.03
2023-02-19T07:15:59.929Z,79.90
2023-02-19T07:21:12.810Z,79.89
2023-02-19T07:26:24.338Z,79.82
2023-02-19T07:31:34.197Z,79.67
2023-02-19T07:36:43.867Z,79.56
2023-02-19T07:41:53.875Z,79.55
2023-02-19T07:47:03.651Z,79.36
2023-02-19T07:52:13.440Z,79.25
2023-02-19T07:57:23.078Z,79.10
2023-02-19T08:02:50.428Z,79.14
2023-02-19T08:08:00.292Z,79.13
2023-02-19T08:13:22.971Z,78.88
2023-02-19T08:18:34.601Z,78.46
2023-02-19T08:23:44.439Z,78.20
2023-02-19T08:28:55.069Z,77.74
2023-02-19T08:34:05.299Z,77.70
2023-02-19T08:39:15.003Z,77.72
2023-02-19T08:44:24.932Z,77.58
2023-02-19T08:49:34.989Z,77.82
2023-02-19T08:54:44.700Z,77.81
2023-02-19T08:59:55.284Z,78.33
2023-02-19T09:05:05.883Z,78.63
2023-02-19T09:10:17.195Z,78.57
2023-02-19T09:15:28.933Z,78.29
2023-02-19T09:20:38.814Z,77.94
2023-02-19T09:25:48.515Z,78.07
2023-02-19T09:30:58.334Z,77.68
2023-02-19T09:36:09.683Z,76.83
2023-02-19T09:41:29.740Z,76.43
2023-02-19T09:46:44.147Z,75.83
2023-02-19T09:52:02.408Z,75.60
2023-02-19T09:57:22.401Z,75.07
2023-02-19T10:02:32.558Z,74.65
2023-02-19T10:07:47.629Z,74.31
2023-02-19T10:13:04.455Z,73.86
2023-02-19T10:18:14.317Z,72.88
2023-02-19T10:23:33.656Z,71.70
2023-02-19T10:28:43.453Z,71.78
2023-02-19T10:34:00.578Z,71.76
2023-02-19T10:39:43.658Z,70.69
2023-02-19T10:44:58.819Z,70.02
2023-02-19T10:50:19.074Z,69.61
2023-02-19T10:55:37.972Z,67.74
2023-02-19T11:00:47.948Z,67.43
2023-02-19T11:06:04.829Z,67.61
2023-02-19T11:11:36.252Z,66.36
2023-02-19T11:16:50.259Z,64.75
2023-02-19T11:22:00.661Z,62.92
2023-02-19T11:27:25.901Z,62.26
2023-02-19T11:32:35.746Z,62.35
2023-02-19T11:38:00.110Z,62.54
2023-02-19T11:43:26.622Z,61.54
2023-02-19T11:49:06.988Z,61.21
2023-02-19T11:54:37.338Z,60.06
2023-02-19T11:59:57.587Z,58.46
2023-02-19T12:05:26.765Z,58.11
2023-02-19T12:10:51.348Z,57.84
2023-02-19T12:16:19.826Z,57.63
2023-02-19T12:21:55.641Z,57.76
2023-02-19T12:27:25.292Z,56.31
2023-02-19T12:33:01.544Z,54.42
2023-02-19T12:38:30.065Z,55.03
2023-02-19T12:43:42.643Z,54.29
2023-02-19T12:49:00.792Z,55.01
2023-02-19T12:54:22.081Z,54.74
2023-02-19T12:59:38.894Z,53.24
2023-02-19T13:04:58.000Z,54.28
2023-02-19T13:10:31.167Z,53.74
2023-02-19T13:15:48.962Z,54.19
2023-02-19T13:21:00.208Z,55.27
2023-02-19T13:26:38.595Z,55.40
2023-02-19T13:32:20.392Z,56.17
2023-02-19T13:37:36.125Z,54.92
2023-02-19T13:42:53.142Z,54.79
2023-02-19T13:48:26.967Z,55.10
2023-02-19T13:54:00.151Z,54.47
2023-02-19T13:59:37.622Z,54.10
2023-02-19T14:04:54.231Z,55.03
2023-02-19T14:10:04.746Z,55.17
2023-02-19T14:15:51.628Z,55.45
2023-02-19T14:21:19.759Z,56.03
2023-02-19T14:26:32.762Z,55.94
2023-02-19T14:31:46.119Z,56.26
2023-02-19T14:37:01.317Z,56.33
2023-02-19T14:42:23.808Z,56.26
2023-02-19T14:47:38.057Z,56.17
2023-02-19T14:52:54.408Z,55.60
2023-02-19T14:58:10.443Z,55.30
2023-02-19T15:03:36.954Z,54.37
2023-02-19T15:08:52.903Z,54.91
2023-02-19T15:14:06.460Z,55.31
2023-02-19T15:19:19.906Z,55.74
2023-02-19T15:24:30.339Z,56.28
2023-02-19T15:29:53.491Z,56.81
2023-02-19T15:35:06.298Z,57.36
2023-02-19T15:40:20.911Z,57.17
2023-02-19T15:45:40.840Z,57.15
2023-02-19T15:50:56.993Z,57.53
2023-02-19T15:56:13.732Z,57.45
2023-02-19T16:01:29.454Z,57.37
2023-02-19T16:06:57.681Z,57.58
2023-02-19T16:12:23.947Z,57.62
2023-02-19T16:17:33.710Z,57.47
2023-02-19T16:22:46.724Z,57.69
2023-02-19T16:27:56.986Z,57.80
2023-02-19T16:33:40.869Z,57.92
